Time;durP1;ratioP1;P1;durP2;ratioP2;P2;SDS_P1;SDS_P2;PMS_P1;PMS_P2;Temp;Humidity;BMP_temperature;BMP_pressure;BME280_temperature;BME280_humidity;BME280_pressure;Samples;Min_cycle;Max_cycle;Signal;HPM_P1;HPM_P2
2022/04/10 00:00:29;;;;;;;6.10;1.40;;;;;8.60;101616.00;;;;5048260;28;20195;-80
2022/04/10 00:02:56;;;;;;;2.80;0.77;;;;;8.60;101617.00;;;;5049061;28;20203;-81
2022/04/10 00:05:23;;;;;;;1.73;0.95;;;;;8.60;101613.00;;;;5048269;28;21033;-81
2022/04/10 00:07:50;;;;;;;2.90;1.10;;;;;8.50;101621.00;;;;5065262;28;20217;-81
2022/04/10 00:10:20;;;;;;;2.42;1.02;;;;;8.50;101625.00;;;;5051862;28;20374;-81
2022/04/10 00:12:48;;;;;;;1.25;0.80;;;;;8.50;101626.00;;;;5049576;28;20203;-81
2022/04/10 00:15:15;;;;;;;1.77;0.93;;;;;8.50;101621.00;;;;5047966;28;20203;-81
2022/04/10 00:17:43;;;;;;;1.20;0.75;;;;;8.50;101622.00;;;;5064069;28;20230;-81
2022/04/10 00:20:11;;;;;;;2.85;1.05;;;;;8.50;101613.00;;;;5068619;28;20195;-81
2022/04/10 00:22:42;;;;;;;1.42;1.02;;;;;8.40;101612.00;;;;5052877;28;20296;-81
2022/04/10 00:25:10;;;;;;;1.88;1.08;;;;;8.50;101617.00;;;;5066792;28;20227;-81
2022/04/10 00:27:39;;;;;;;1.30;0.70;;;;;8.40;101608.00;;;;5058370;28;20214;-81
2022/04/10 00:30:08;;;;;;;3.88;0.85;;;;;8.40;101607.00;;;;5068897;28;20645;-81
2022/04/10 00:32:35;;;;;;;4.22;1.45;;;;;8.40;101604.00;;;;5053068;28;20210;-82
2022/04/10 00:35:03;;;;;;;3.88;1.17;;;;;8.40;101609.00;;;;5047633;28;20234;-81
2022/04/10 00:37:30;;;;;;;1.52;1.00;;;;;8.40;101609.00;;;;5061465;28;20198;-81
2022/04/10 00:40:00;;;;;;;3.00;1.38;;;;;8.40;101599.00;;;;5067942;28;20198;-81
2022/04/10 00:42:32;;;;;;;2.60;1.23;;;;;8.30;101600.00;;;;5056031;28;20198;-81
2022/04/10 00:45:01;;;;;;;3.00;1.05;;;;;8.30;101599.00;;;;5053678;28;20250;-81
2022/04/10 00:47:28;;;;;;;1.90;1.10;;;;;8.30;101596.00;;;;5048775;28;20192;-81
2022/04/10 00:49:58;;;;;;;4.15;1.05;;;;;8.30;101588.00;;;;5062896;28;20211;-82
2022/04/10 00:52:27;;;;;;;3.30;1.30;;;;;8.20;101594.00;;;;5059564;28;20286;-81
2022/04/10 00:54:54;;;;;;;3.83;1.00;;;;;8.20;101597.00;;;;5051289;28;20206;-81
2022/04/10 00:57:22;;;;;;;2.08;0.88;;;;;8.20;101595.00;;;;5048320;28;20725;-81
2022/04/10 00:59:49;;;;;;;1.33;0.80;;;;;8.20;101598.00;;;;5054955;28;20195;-81
2022/04/10 01:02:18;;;;;;;1.52;0.73;;;;;8.20;101594.00;;;;5067301;28;20199;-81
2022/04/10 01:04:46;;;;;;;2.17;0.80;;;;;8.20;101592.00;;;;5062713;28;20227;-81
2022/04/10 01:07:14;;;;;;;1.85;0.70;;;;;8.10;101590.00;;;;5049394;28;20207;-81
2022/04/10 01:09:42;;;;;;;3.17;0.90;;;;;8.10;101591.00;;;;5049700;28;20199;-81
2022/04/10 01:12:10;;;;;;;0.80;0.60;;;;;8.10;101588.00;;;;5067680;28;20206;-81
2022/04/10 01:14:38;;;;;;;1.88;0.80;;;;;8.10;101591.00;;;;5065970;28;20201;-82
2022/04/10 01:17:08;;;;;;;1.30;0.75;;;;;8.00;101589.00;;;;5064810;28;20194;-81
2022/04/10 01:19:39;;;;;;;2.15;0.75;;;;;8.00;101592.00;;;;5065929;28;20207;-81
2022/04/10 01:22:08;;;;;;;1.50;0.70;;;;;8.00;101588.00;;;;5060343;28;20199;-81
2022/04/10 01:24:38;;;;;;;3.30;0.90;;;;;8.00;101593.00;;;;5050784;28;20602;-81
2022/04/10 01:27:05;;;;;;;3.60;1.02;;;;;8.00;101599.00;;;;5070636;28;20661;-81
2022/04/10 01:29:33;;;;;;;3.20;1.08;;;;;8.00;101605.00;;;;5068079;28;20217;-81
2022/04/10 01:32:01;;;;;;;4.00;0.95;;;;;8.00;101606.00;;;;5050640;28;20202;-81
2022/04/10 01:34:28;;;;;;;3.83;0.93;;;;;7.90;101613.00;;;;5054182;28;20223;-81
2022/04/10 01:36:56;;;;;;;1.30;0.60;;;;;7.90;101615.00;;;;5068501;28;20202;-81
2022/04/10 01:39:26;;;;;;;2.67;0.80;;;;;7.90;101618.00;;;;5059650;28;20199;-81
2022/04/10 01:41:55;;;;;;;4.20;0.80;;;;;7.90;101607.00;;;;5050393;28;20212;-81
2022/04/10 01:44:22;;;;;;;4.72;1.02;;;;;7.90;101617.00;;;;5061520;28;20226;-81
2022/04/10 01:46:49;;;;;;;2.95;1.05;;;;;7.80;101619.00;;;;5064483;28;20203;-81
2022/04/10 01:49:17;;;;;;;3.80;0.93;;;;;7.80;101621.00;;;;5063454;28;20199;-81
2022/04/10 01:51:44;;;;;;;1.98;0.95;;;;;7.80;101618.00;;;;5056704;28;20208;-81
2022/04/10 01:54:11;;;;;;;3.28;0.63;;;;;7.80;101624.00;;;;5067266;28;20324;-81
2022/04/10 01:56:39;;;;;;;2.35;0.90;;;;;7.80;101623.00;;;;5065944;28;20203;-81
2022/04/10 01:59:07;;;;;;;2.22;1.30;;;;;7.80;101625.00;;;;5056435;28;20200;-81
2022/04/10 02:01:34;;;;;;;1.90;1.08;;;;;7.80;101626.00;;;;5049636;28;20196;-81
2022/04/10 02:04:02;;;;;;;2.75;1.02;;;;;7.80;101633.00;;;;5051072;28;20636;-81
2022/04/10 02:06:29;;;;;;;2.50;1.40;;;;;7.80;101630.00;;;;5065381;28;20190;-81
2022/04/10 02:08:56;;;;;;;1.70;1.17;;;;;7.70;101634.00;;;;5062519;28;20668;-80
2022/04/10 02:11:23;;;;;;;3.15;1.25;;;;;7.70;101635.00;;;;5066760;28;20572;-81
2022/04/10 02:13:51;;;;;;;1.52;1.02;;;;;7.70;101636.00;;;;5068601;28;20191;-81
2022/04/10 02:16:20;;;;;;;2.55;0.90;;;;;7.70;101626.00;;;;5055521;28;20188;-80
2022/04/10 02:18:48;;;;;;;2.17;0.95;;;;;7.70;101632.00;;;;5050668;28;20218;-81
2022/04/10 02:21:16;;;;;;;1.90;0.95;;;;;7.70;101641.00;;;;5059807;28;20195;-81
2022/04/10 02:23:43;;;;;;;2.50;1.15;;;;;7.70;101631.00;;;;5060074;28;20207;-81
2022/04/10 02:26:12;;;;;;;2.15;1.23;;;;;7.70;101642.00;;;;5061638;28;20222;-81
2022/04/10 02:28:39;;;;;;;1.42;0.85;;;;;7.60;101630.00;;;;5059313;28;20770;-81
2022/04/10 02:31:06;;;;;;;4.20;1.00;;;;;7.60;101633.00;;;;5063683;28;20202;-81
2022/04/10 02:33:35;;;;;;;2.65;0.93;;;;;7.60;101631.00;;;;5069479;28;20317;-81
2022/04/10 02:36:02;;;;;;;3.60;1.00;;;;;7.60;101636.00;;;;5065586;28;20203;-80
2022/04/10 02:38:30;;;;;;;2.83;1.23;;;;;7.60;101634.00;;;;5066771;28;20194;-81
2022/04/10 02:40:57;;;;;;;2.17;1.20;;;;;7.60;101625.00;;;;5064223;28;20210;-80
2022/04/10 02:43:24;;;;;;;1.88;1.10;;;;;7.60;101642.00;;;;5059495;28;20214;-80
2022/04/10 02:45:51;;;;;;;2.75;1.08;;;;;7.50;101637.00;;;;5068249;28;20219;-81
2022/04/10 02:48:19;;;;;;;1.98;1.10;;;;;7.50;101630.00;;;;5068646;28;20244;-80
2022/04/10 02:50:47;;;;;;;2.30;1.20;;;;;7.50;101635.00;;;;5065450;28;20234;-80
2022/04/10 02:53:14;;;;;;;1.90;1.10;;;;;7.50;101644.00;;;;5068583;28;20195;-80
2022/04/10 02:55:42;;;;;;;4.25;1.55;;;;;7.50;101642.00;;;;5052337;28;20207;-81
2022/04/10 02:58:09;;;;;;;1.77;1.10;;;;;7.50;101637.00;;;;5068700;28;20214;-80
2022/04/10 03:00:36;;;;;;;1.90;1.20;;;;;7.50;101641.00;;;;5067442;28;20203;-80
2022/04/10 03:03:03;;;;;;;1.83;0.82;;;;;7.50;101641.00;;;;5052877;28;20192;-81
2022/04/10 03:05:31;;;;;;;1.70;0.98;;;;;7.50;101639.00;;;;5049653;28;20219;-80
2022/04/10 03:07:59;;;;;;;1.50;0.93;;;;;7.50;101645.00;;;;5068280;28;20202;-80
2022/04/10 03:10:27;;;;;;;2.67;1.35;;;;;7.40;101644.00;;;;5060920;28;20188;-80
2022/04/10 03:12:54;;;;;;;2.90;1.10;;;;;7.40;101651.00;;;;5062727;28;20198;-80
2022/04/10 03:15:21;;;;;;;2.72;0.85;;;;;7.40;101653.00;;;;5065808;28;20190;-80
2022/04/10 03:17:48;;;;;;;3.05;1.50;;;;;7.40;101652.00;;;;5068186;28;20203;-80
2022/04/10 03:20:15;;;;;;;5.30;1.10;;;;;7.40;101659.00;;;;5064193;28;21256;-80
2022/04/10 03:22:43;;;;;;;2.28;1.23;;;;;7.40;101653.00;;;;5061316;28;20218;-81
2022/04/10 03:25:12;;;;;;;1.70;0.93;;;;;7.40;101661.00;;;;5065552;28;20218;-80
2022/04/10 03:27:39;;;;;;;1.70;0.93;;;;;7.40;101655.00;;;;5067747;28;21158;-81
2022/04/10 03:30:08;;;;;;;2.67;0.98;;;;;7.40;101655.00;;;;5068297;28;20195;-81
2022/04/10 03:32:35;;;;;;;2.53;1.30;;;;;7.30;101654.00;;;;5068142;28;20198;-80
2022/04/10 03:35:02;;;;;;;3.53;1.20;;;;;7.30;101667.00;;;;5062669;28;20227;-80
2022/04/10 03:37:29;;;;;;;2.60;1.17;;;;;7.30;101663.00;;;;5065321;28;20198;-79
2022/04/10 03:39:57;;;;;;;2.00;1.05;;;;;7.30;101661.00;;;;5057103;28;20202;-80
2022/04/10 03:42:25;;;;;;;5.22;1.40;;;;;7.30;101663.00;;;;5065139;28;20288;-80
2022/04/10 03:44:52;;;;;;;2.65;1.25;;;;;7.30;101660.00;;;;5062256;28;20219;-80
2022/04/10 03:47:20;;;;;;;1.77;1.20;;;;;7.30;101666.00;;;;5048673;28;20192;-79
2022/04/10 03:49:47;;;;;;;3.90;1.10;;;;;7.30;101667.00;;;;5049997;28;20195;-79
2022/04/10 03:52:14;;;;;;;1.60;0.98;;;;;7.30;101673.00;;;;5063900;28;20256;-79
2022/04/10 03:54:41;;;;;;;3.97;1.35;;;;;7.30;101673.00;;;;5056271;28;20200;-80
2022/04/10 03:57:09;;;;;;;4.25;1.70;;;;;7.30;101680.00;;;;5068676;28;20206;-79
2022/04/10 03:59:37;;;;;;;1.63;1.00;;;;;7.20;101677.00;;;;5068117;28;20199;-79
2022/04/10 04:02:05;;;;;;;1.90;1.02;;;;;7.20;101692.00;;;;5052435;28;20192;-79
2022/04/10 04:04:32;;;;;;;3.13;1.08;;;;;7.20;101685.00;;;;5048756;28;20269;-79
2022/04/10 04:06:59;;;;;;;3.85;1.08;;;;;7.20;101683.00;;;;5064016;28;20876;-79
2022/04/10 04:09:27;;;;;;;1.88;0.95;;;;;7.20;101693.00;;;;5067451;28;20225;-79
2022/04/10 04:11:54;;;;;;;2.20;1.23;;;;;7.20;101689.00;;;;5052836;28;20229;-79
2022/04/10 04:14:21;;;;;;;1.17;0.90;;;;;7.20;101690.00;;;;5048463;28;20234;-79
2022/04/10 04:16:50;;;;;;;2.20;1.25;;;;;7.20;101689.00;;;;5065203;28;20610;-79
2022/04/10 04:19:17;;;;;;;2.67;1.35;;;;;7.20;101682.00;;;;5057444;28;20195;-79
2022/04/10 04:21:44;;;;;;;2.90;1.33;;;;;7.20;101681.00;;;;5065629;28;20237;-79
2022/04/10 04:24:11;;;;;;;2.03;1.00;;;;;7.20;101686.00;;;;5059193;28;20215;-79
2022/04/10 04:26:39;;;;;;;2.22;1.10;;;;;7.10;101692.00;;;;5052699;28;20226;-79
2022/04/10 04:29:06;;;;;;;3.17;1.02;;;;;7.10;101695.00;;;;5065590;28;20656;-79
2022/04/10 04:31:33;;;;;;;4.47;1.00;;;;;7.10;101703.00;;;;5057395;28;20214;-80
2022/04/10 04:34:02;;;;;;;2.45;0.82;;;;;7.10;101701.00;;;;5068079;28;20256;-79
2022/04/10 04:36:30;;;;;;;2.70;0.68;;;;;7.10;101698.00;;;;5063751;28;20202;-79
2022/04/10 04:38:58;;;;;;;3.22;1.45;;;;;7.10;101702.00;;;;5060836;28;20238;-79
2022/04/10 04:41:25;;;;;;;3.55;1.15;;;;;7.10;101694.00;;;;5057594;28;20207;-79
2022/04/10 04:43:52;;;;;;;2.25;1.33;;;;;7.10;101697.00;;;;5059269;28;20688;-79
2022/04/10 04:46:20;;;;;;;2.05;0.95;;;;;7.10;101709.00;;;;5066524;28;20689;-79
2022/04/10 04:48:47;;;;;;;1.65;0.75;;;;;7.10;101703.00;;;;5065737;28;20622;-80
2022/04/10 04:51:17;;;;;;;3.80;0.95;;;;;7.10;101704.00;;;;5047742;28;20192;-79
2022/04/10 04:53:44;;;;;;;2.00;1.00;;;;;7.10;101707.00;;;;5060291;28;20203;-79
2022/04/10 04:56:11;;;;;;;4.30;1.60;;;;;7.10;101712.00;;;;5055975;28;20202;-79
2022/04/10 04:58:38;;;;;;;2.30;1.10;;;;;7.10;101708.00;;;;5069613;28;20567;-79
2022/04/10 05:01:06;;;;;;;2.00;1.05;;;;;7.10;101712.00;;;;5061752;28;20250;-79
2022/04/10 05:03:33;;;;;;;2.58;1.40;;;;;7.10;101713.00;;;;5052042;28;20203;-79
2022/04/10 05:06:00;;;;;;;3.28;1.40;;;;;7.10;101718.00;;;;5070352;28;20218;-79
2022/04/10 05:08:29;;;;;;;3.60;1.20;;;;;7.10;101711.00;;;;5065974;28;20183;-79
2022/04/10 05:10:56;;;;;;;6.05;1.23;;;;;7.10;101711.00;;;;5061953;28;20207;-79
2022/04/10 05:13:23;;;;;;;1.85;0.80;;;;;7.10;101715.00;;;;5057806;28;20218;-79
2022/04/10 05:15:51;;;;;;;3.75;1.27;;;;;7.20;101714.00;;;;5061584;28;20190;-80
2022/04/10 05:18:19;;;;;;;1.65;0.80;;;;;7.20;101720.00;;;;5062115;28;20723;-79
2022/04/10 05:20:46;;;;;;;4.05;1.13;;;;;7.20;101723.00;;;;5059441;28;20642;-79
2022/04/10 05:23:17;;;;;;;4.40;1.38;;;;;7.20;101719.00;;;;5059844;28;20409;-79
2022/04/10 05:25:46;;;;;;;4.18;1.25;;;;;7.20;101716.00;;;;5061665;28;20223;-79
2022/04/10 05:28:14;;;;;;;2.17;0.90;;;;;7.20;101724.00;;;;5057799;28;20195;-80
2022/04/10 05:30:42;;;;;;;2.70;1.33;;;;;7.30;101722.00;;;;5059132;28;20195;-79
2022/04/10 05:33:12;;;;;;;4.15;1.50;;;;;7.30;101727.00;;;;5059754;28;20203;-79
2022/04/10 05:35:40;;;;;;;3.28;1.30;;;;;7.30;101740.00;;;;5059128;28;20731;-79
2022/04/10 05:38:08;;;;;;;3.85;1.23;;;;;7.30;101742.00;;;;5060398;28;20195;-79
2022/04/10 05:40:35;;;;;;;3.15;1.20;;;;;7.40;101749.00;;;;5056720;28;20697;-79
2022/04/10 05:43:04;;;;;;;1.95;1.23;;;;;7.40;101742.00;;;;5061978;28;20211;-78
2022/04/10 05:45:32;;;;;;;2.25;1.40;;;;;7.50;101753.00;;;;5060275;28;20219;-79
2022/04/10 05:48:00;;;;;;;2.67;1.88;;;;;7.50;101755.00;;;;5058382;28;20664;-80
2022/04/10 05:50:27;;;;;;;2.65;1.42;;;;;7.50;101764.00;;;;5060939;28;20653;-80
2022/04/10 05:52:55;;;;;;;4.60;1.02;;;;;7.60;101760.00;;;;5060636;28;20234;-79
2022/04/10 05:55:24;;;;;;;2.17;1.45;;;;;7.60;101770.00;;;;5058264;28;20230;-80
2022/04/10 05:57:51;;;;;;;3.00;1.10;;;;;7.70;101768.00;;;;5065503;28;20195;-80
2022/04/10 06:00:23;;;;;;;5.75;1.30;;;;;7.80;101776.00;;;;5066415;28;20244;-80
2022/04/10 06:02:52;;;;;;;1.38;0.98;;;;;7.90;101775.00;;;;5064420;28;20191;-81
2022/04/10 06:05:19;;;;;;;1.65;1.08;;;;;7.90;101783.00;;;;5060533;28;20576;-80
2022/04/10 06:07:48;;;;;;;3.25;1.42;;;;;8.00;101783.00;;;;5059707;28;20218;-81
2022/04/10 06:10:16;;;;;;;4.43;1.27;;;;;8.10;101791.00;;;;5058183;28;20827;-80
2022/04/10 06:12:54;;;;;;;4.25;1.95;;;;;8.10;101791.00;;;;5062608;28;20203;-82
2022/04/10 06:15:25;;;;;;;3.22;1.40;;;;;8.20;101789.00;;;;5063713;28;20191;-80
2022/04/10 06:17:56;;;;;;;4.28;1.13;;;;;8.30;101794.00;;;;5072191;28;20206;-79
2022/04/10 06:20:27;;;;;;;4.65;1.98;;;;;8.40;101795.00;;;;5061191;28;20192;-80
2022/04/10 06:23:00;;;;;;;4.43;1.60;;;;;8.40;101797.00;;;;5060967;28;20217;-81
2022/04/10 06:25:30;;;;;;;4.13;1.65;;;;;8.50;101817.00;;;;5068918;28;20219;-80
2022/04/10 06:27:58;;;;;;;3.45;1.60;;;;;8.60;101839.00;;;;5057630;28;20198;-80
2022/04/10 06:30:27;;;;;;;3.05;1.60;;;;;8.60;101836.00;;;;5060236;28;20191;-80
2022/04/10 06:32:54;;;;;;;4.53;1.77;;;;;8.80;101845.00;;;;5068175;28;20198;-81
2022/04/10 06:35:24;;;;;;;3.03;1.35;;;;;8.80;101847.00;;;;5061956;28;20247;-80
2022/04/10 06:37:52;;;;;;;2.00;1.45;;;;;8.90;101847.00;;;;5066835;28;20557;-81
2022/04/10 06:40:19;;;;;;;2.58;1.70;;;;;9.00;101848.00;;;;5060573;28;20222;-81
2022/04/10 06:42:50;;;;;;;2.30;1.08;;;;;9.10;101846.00;;;;5066737;28;20653;-80
2022/04/10 06:45:17;;;;;;;3.70;1.60;;;;;9.20;101835.00;;;;5065497;28;20677;-81
2022/04/10 06:47:46;;;;;;;8.02;1.55;;;;;9.30;101847.00;;;;5062536;28;20613;-80
2022/04/10 06:50:13;;;;;;;2.28;0.63;;;;;9.40;101845.00;;;;5054562;28;20254;-81
2022/04/10 06:52:44;;;;;;;2.63;1.23;;;;;9.40;101851.00;;;;5056463;28;20206;-81
2022/04/10 06:55:15;;;;;;;2.30;1.27;;;;;9.50;101856.00;;;;5055056;28;20198;-81
2022/04/10 06:57:44;;;;;;;1.63;0.85;;;;;9.70;101855.00;;;;5058085;28;20199;-82
2022/04/10 07:00:13;;;;;;;1.92;0.73;;;;;9.80;101869.00;;;;5055582;28;20209;-82
2022/04/10 07:02:42;;;;;;;0.70;0.52;;;;;9.80;101869.00;;;;5061781;28;20203;-82
2022/04/10 07:05:11;;;;;;;1.77;0.77;;;;;9.90;101875.00;;;;5061161;28;20191;-82
2022/04/10 07:07:38;;;;;;;0.88;0.60;;;;;10.00;101887.00;;;;5055367;28;20314;-81
2022/04/10 07:10:06;;;;;;;4.38;0.95;;;;;10.10;101881.00;;;;5053194;28;20195;-82
2022/04/10 07:12:36;;;;;;;1.77;0.65;;;;;10.10;101871.00;;;;5059547;28;20203;-82
2022/04/10 07:15:07;;;;;;;2.50;0.52;;;;;10.20;101873.00;;;;5063477;28;20210;-83
2022/04/10 07:17:34;;;;;;;1.67;0.80;;;;;10.30;101876.00;;;;5065347;28;20569;-83
2022/04/10 07:20:03;;;;;;;1.92;0.80;;;;;10.30;101880.00;;;;5050190;28;20195;-83
2022/04/10 07:25:18;;;;;;;3.92;0.63;;;;;10.50;101876.00;;;;5064000;28;20206;-82
2022/04/10 07:27:48;;;;;;;1.30;0.43;;;;;10.50;101871.00;;;;5062884;28;20223;-82
2022/04/10 07:30:15;;;;;;;3.20;0.35;;;;;10.60;101879.00;;;;5056480;28;20565;-81
2022/04/10 07:32:43;;;;;;;0.95;0.50;;;;;10.70;101874.00;;;;5064879;28;20203;-81
2022/04/10 07:35:10;;;;;;;1.08;0.47;;;;;10.80;101876.00;;;;5059684;28;20230;-81
2022/04/10 07:37:39;;;;;;;1.15;0.20;;;;;10.90;101882.00;;;;5058255;28;20575;-81
2022/04/10 07:40:08;;;;;;;0.60;0.17;;;;;11.00;101880.00;;;;5057419;28;20416;-82
2022/04/10 07:42:39;;;;;;;1.38;0.32;;;;;11.10;101880.00;;;;5062091;28;20630;-82
2022/04/10 07:45:07;;;;;;;0.35;0.25;;;;;11.20;101887.00;;;;5063084;28;20199;-83
2022/04/10 07:47:34;;;;;;;1.17;0.40;;;;;11.40;101883.00;;;;5065768;28;20222;-82
2022/04/10 07:50:01;;;;;;;0.28;0.13;;;;;11.50;101892.00;;;;5067887;28;20606;-82
2022/04/10 07:52:29;;;;;;;0.50;0.40;;;;;11.60;101893.00;;;;5065802;28;20195;-82
2022/04/10 07:54:57;;;;;;;2.40;0.57;;;;;11.70;101890.00;;;;5062103;28;20246;-82
2022/04/10 07:57:26;;;;;;;1.55;0.50;;;;;11.80;101903.00;;;;5061350;28;20195;-80
2022/04/10 07:59:53;;;;;;;1.52;0.40;;;;;11.90;101914.00;;;;5060239;28;20200;-79
2022/04/10 08:02:20;;;;;;;0.45;0.20;;;;;12.00;101908.00;;;;5059574;28;20214;-80
2022/04/10 08:04:48;;;;;;;1.95;0.60;;;;;12.10;101913.00;;;;5051172;28;20214;-82
2022/04/10 08:07:16;;;;;;;0.80;0.30;;;;;12.20;101911.00;;;;5057231;28;20223;-81
2022/04/10 08:09:43;;;;;;;0.88;0.60;;;;;12.30;101913.00;;;;5049943;28;20223;-82
2022/04/10 08:12:12;;;;;;;1.13;0.75;;;;;12.40;101925.00;;;;5060153;28;20657;-83
2022/04/10 08:14:40;;;;;;;1.55;0.50;;;;;12.50;101929.00;;;;5050429;28;20192;-81
2022/04/10 08:17:09;;;;;;;1.10;0.40;;;;;12.60;101919.00;;;;5060314;28;20199;-83
2022/04/10 08:19:36;;;;;;;1.15;0.40;;;;;12.80;101925.00;;;;5067061;28;20219;-81
2022/04/10 08:22:04;;;;;;;2.47;0.63;;;;;12.90;101924.00;;;;5059312;28;20684;-82
2022/04/10 08:24:31;;;;;;;1.77;0.70;;;;;13.10;101924.00;;;;5058367;28;20211;-83
2022/04/10 08:26:59;;;;;;;0.93;0.60;;;;;13.30;101929.00;;;;5057110;28;20230;-84
2022/04/10 08:29:28;;;;;;;1.65;0.43;;;;;13.40;101929.00;;;;5053039;28;20294;-84
2022/04/10 08:31:55;;;;;;;0.32;0.20;;;;;13.60;101920.00;;;;5063091;28;20381;-82
2022/04/10 08:34:23;;;;;;;2.42;0.63;;;;;13.70;101926.00;;;;5066616;28;20609;-82
2022/04/10 08:36:50;;;;;;;3.55;0.73;;;;;13.80;101926.00;;;;5059515;28;20212;-81
2022/04/10 08:39:17;;;;;;;3.30;0.77;;;;;13.90;101931.00;;;;5051466;28;20234;-81
2022/04/10 08:41:47;;;;;;;2.88;0.60;;;;;14.00;101934.00;;;;5065039;28;20210;-82
2022/04/10 08:44:17;;;;;;;7.20;0.80;;;;;14.10;101933.00;;;;5069404;28;20203;-81
2022/04/10 08:46:48;;;;;;;1.58;0.50;;;;;14.20;101934.00;;;;5062605;28;20227;-83
2022/04/10 08:49:16;;;;;;;0.98;0.50;;;;;14.30;101934.00;;;;5074545;28;20183;-82
2022/04/10 08:51:43;;;;;;;1.20;0.70;;;;;14.30;101937.00;;;;5057184;28;20195;-81
2022/04/10 08:54:11;;;;;;;2.65;0.82;;;;;14.30;101940.00;;;;5051942;28;20191;-82
2022/04/10 08:56:42;;;;;;;3.42;0.40;;;;;14.40;101942.00;;;;5072268;28;20203;-82
2022/04/10 08:59:10;;;;;;;4.05;0.70;;;;;14.40;101935.00;;;;5071916;28;20203;-81
2022/04/10 09:01:38;;;;;;;0.70;0.40;;;;;14.50;101946.00;;;;5055383;28;20196;-83
2022/04/10 09:04:09;;;;;;;2.25;0.57;;;;;14.50;101945.00;;;;5069153;28;20187;-83
2022/04/10 09:06:41;;;;;;;1.17;0.40;;;;;14.50;101951.00;;;;5075711;28;20222;-83
2022/04/10 09:09:12;;;;;;;1.42;0.68;;;;;14.60;101942.00;;;;5061327;28;20227;-82
2022/04/10 09:11:40;;;;;;;1.85;0.50;;;;;14.70;101943.00;;;;5057099;28;20207;-82
2022/04/10 09:14:08;;;;;;;0.85;0.40;;;;;14.80;101952.00;;;;5065097;28;20658;-82
2022/04/10 09:16:35;;;;;;;0.73;0.30;;;;;14.90;101955.00;;;;5052845;28;20215;-81
2022/04/10 09:19:08;;;;;;;1.15;0.60;;;;;15.00;101950.00;;;;5067988;28;20198;-81
2022/04/10 09:21:36;;;;;;;1.50;0.77;;;;;15.20;101945.00;;;;5072492;28;20258;-82
2022/04/10 09:24:05;;;;;;;2.22;0.80;;;;;15.40;101944.00;;;;5060129;28;20249;-81
2022/04/10 09:26:46;;;;;;;1.27;0.90;;;;;15.50;101950.00;;;;5055317;28;20237;-81
2022/04/10 09:29:14;;;;;;;1.42;0.82;;;;;15.70;101948.00;;;;5063804;28;20225;-82
2022/04/10 09:31:44;;;;;;;1.88;0.88;;;;;15.70;101944.00;;;;5072179;28;20211;-82
2022/04/10 09:34:15;;;;;;;3.35;0.60;;;;;15.70;101946.00;;;;5063564;28;20230;-80
2022/04/10 09:36:45;;;;;;;2.00;0.65;;;;;15.70;101951.00;;;;5063438;28;20202;-81
2022/04/10 09:39:14;;;;;;;0.60;0.50;;;;;15.70;101950.00;;;;5062320;28;20197;-81
2022/04/10 09:41:43;;;;;;;2.40;0.52;;;;;15.70;101948.00;;;;5068954;28;20203;-80
2022/04/10 09:44:21;;;;;;;0.95;0.57;;;;;15.60;101955.00;;;;5063659;28;20274;-81
2022/04/10 09:46:59;;;;;;;1.70;0.55;;;;;15.60;101953.00;;;;5065442;28;20218;-83
2022/04/10 09:49:32;;;;;;;3.50;0.55;;;;;15.70;101946.00;;;;5066392;28;20198;-77
2022/04/10 09:52:01;;;;;;;0.38;0.30;;;;;15.90;101939.00;;;;5068600;28;20306;-79
2022/04/10 09:54:35;;;;;;;2.03;0.52;;;;;16.00;101942.00;;;;5067359;28;20213;-79
2022/04/10 09:57:07;;;;;;;1.13;0.52;;;;;16.10;101953.00;;;;5064957;28;20196;-79
2022/04/10 09:59:42;;;;;;;1.67;0.47;;;;;16.00;101949.00;;;;5049177;28;20206;-76
2022/04/10 10:02:10;;;;;;;1.40;0.60;;;;;16.10;101958.00;;;;5059194;28;20238;-78
2022/04/10 10:04:40;;;;;;;2.20;0.88;;;;;16.00;101960.00;;;;5050528;28;20211;-77
2022/04/10 10:07:10;;;;;;;2.65;0.75;;;;;16.00;101947.00;;;;5065390;28;20214;-77
2022/04/10 10:09:38;;;;;;;0.98;0.40;;;;;16.10;101949.00;;;;5057420;28;20206;-78
2022/04/10 10:12:06;;;;;;;0.88;0.40;;;;;16.10;101956.00;;;;5069165;28;20194;-78
2022/04/10 10:14:35;;;;;;;1.63;0.60;;;;;16.20;101950.00;;;;5063521;28;20638;-79
2022/04/10 10:17:04;;;;;;;0.68;0.20;;;;;16.30;101946.00;;;;5052442;28;20612;-78
2022/04/10 10:19:34;;;;;;;2.97;0.45;;;;;16.40;101953.00;;;;5052520;28;20684;-78
2022/04/10 10:22:04;;;;;;;1.02;0.30;;;;;16.50;101953.00;;;;5051235;28;20283;-78
2022/04/10 10:24:35;;;;;;;1.85;0.32;;;;;16.60;101955.00;;;;5060643;28;20211;-76
2022/04/10 10:27:49;;;;;;;0.82;0.20;;;;;16.70;101952.00;;;;5049907;28;20215;-77
2022/04/10 10:30:26;;;;;;;0.40;0.20;;;;;16.80;101957.00;;;;4968018;28;20203;-77
2022/04/10 10:32:56;;;;;;;1.60;0.45;;;;;16.90;101948.00;;;;5043189;28;20503;-77
2022/04/10 10:35:33;;;;;;;0.25;0.10;;;;;16.90;101951.00;;;;5050310;28;20233;-77
2022/04/10 10:38:01;;;;;;;1.30;0.47;;;;;17.00;101954.00;;;;5049984;28;20203;-77
2022/04/10 10:40:29;;;;;;;0.60;0.20;;;;;17.10;101948.00;;;;5054147;28;20600;-77
2022/04/10 10:43:00;;;;;;;0.68;0.20;;;;;17.20;101956.00;;;;5049770;28;20211;-77
2022/04/10 10:45:36;;;;;;;2.13;0.22;;;;;17.20;101956.00;;;;5065162;28;20195;-78
2022/04/10 10:48:38;;;;;;;0.50;0.10;;;;;17.20;101950.00;;;;5052950;28;20226;-78
2022/04/10 10:51:44;;;;;;;0.85;0.30;;;;;17.20;101940.00;;;;5063496;28;20637;-82
2022/04/10 10:54:20;;;;;;;2.05;0.47;;;;;17.30;101948.00;;;;5036261;28;20210;-81
2022/04/10 10:56:50;;;;;;;0.82;0.30;;;;;17.40;101957.00;;;;5064491;28;20232;-79
2022/04/10 10:59:22;;;;;;;1.33;0.30;;;;;17.40;101953.00;;;;5055618;28;20200;-80
2022/04/10 11:02:03;;;;;;;1.35;0.40;;;;;17.50;101941.00;;;;5062096;28;20214;-79
2022/04/10 11:04:35;;;;;;;1.13;0.35;;;;;17.70;101948.00;;;;5048332;28;20244;-81
2022/04/10 11:07:21;;;;;;;0.75;0.30;;;;;17.70;101948.00;;;;5047529;28;20223;-81
2022/04/10 11:09:58;;;;;;;1.20;0.57;;;;;17.80;101951.00;;;;5065101;28;20206;-82
2022/04/10 11:12:31;;;;;;;1.42;0.40;;;;;17.90;101956.00;;;;5056560;28;20202;-80
2022/04/10 11:15:01;;;;;;;2.10;0.25;;;;;17.90;101947.00;;;;5058909;28;20290;-81
2022/04/10 11:17:29;;;;;;;0.88;0.38;;;;;17.90;101952.00;;;;5049053;28;20200;-81
2022/04/10 11:19:58;;;;;;;1.20;0.20;;;;;18.00;101947.00;;;;5062671;28;20230;-80
2022/04/10 11:22:31;;;;;;;0.50;0.17;;;;;18.10;101951.00;;;;5058195;28;20200;-78
2022/04/10 11:25:05;;;;;;;1.33;0.40;;;;;18.20;101941.00;;;;5050739;28;20199;-79
2022/04/10 11:27:44;;;;;;;4.35;1.45;;;;;18.20;101946.00;;;;5053352;28;20227;-81
2022/04/10 11:30:13;;;;;;;1.48;0.50;;;;;18.30;101940.00;;;;5051378;28;20183;-80
2022/04/10 11:32:45;;;;;;;0.82;0.22;;;;;18.40;101935.00;;;;5067938;28;20221;-80
2022/04/10 11:35:20;;;;;;;0.90;0.30;;;;;18.50;101943.00;;;;5050530;28;20233;-79
2022/04/10 11:37:50;;;;;;;1.23;0.40;;;;;18.60;101943.00;;;;5059223;28;20645;-80
2022/04/10 11:40:22;;;;;;;1.75;0.35;;;;;18.70;101944.00;;;;5057526;28;20194;-80
2022/04/10 11:42:51;;;;;;;1.50;0.77;;;;;18.80;101941.00;;;;5048336;28;20253;-80
2022/04/10 11:45:20;;;;;;;1.70;0.55;;;;;18.80;101937.00;;;;5061658;28;20230;-81
2022/04/10 11:47:48;;;;;;;2.28;0.50;;;;;18.90;101945.00;;;;5053192;28;20222;-81
2022/04/10 11:50:16;;;;;;;2.55;0.25;;;;;19.00;101933.00;;;;5054582;28;20203;-80
2022/04/10 11:52:57;;;;;;;2.50;0.55;;;;;19.00;101942.00;;;;5067830;28;20975;-82
2022/04/10 11:55:32;;;;;;;1.92;0.40;;;;;19.10;101941.00;;;;5067502;28;20290;-80
2022/04/10 11:58:00;;;;;;;1.02;0.30;;;;;19.10;101946.00;;;;5050893;28;20207;-81
2022/04/10 12:00:28;;;;;;;1.70;0.20;;;;;19.00;101939.00;;;;5059955;28;20199;-80
2022/04/10 12:02:56;;;;;;;1.92;0.38;;;;;18.90;101936.00;;;;5067309;28;20888;-80
2022/04/10 12:05:29;;;;;;;1.00;0.20;;;;;18.80;101940.00;;;;5060989;28;20253;-78
2022/04/10 12:08:00;;;;;;;0.95;0.32;;;;;18.90;101929.00;;;;5053125;28;20223;-76
2022/04/10 12:10:29;;;;;;;2.85;0.60;;;;;19.00;101930.00;;;;5057839;28;20226;-78
2022/04/10 12:12:57;;;;;;;2.58;0.73;;;;;19.00;101924.00;;;;5067467;28;20195;-78
2022/04/10 12:15:25;;;;;;;1.45;0.30;;;;;19.10;101923.00;;;;5074119;28;20563;-77
2022/04/10 12:18:08;;;;;;;1.60;0.32;;;;;19.10;101916.00;;;;5062000;28;20210;-78
2022/04/10 12:20:36;;;;;;;0.75;0.30;;;;;19.30;101926.00;;;;5060175;28;20222;-79
2022/04/10 12:23:17;;;;;;;0.60;0.25;;;;;19.30;101916.00;;;;5062270;28;20226;-79
2022/04/10 12:25:46;;;;;;;1.30;0.43;;;;;19.40;101914.00;;;;5062942;28;20207;-79